Time;durP1;ratioP1;P1;durP2;ratioP2;P2;SDS_P1;SDS_P2;PMS_P1;PMS_P2;Temp;Humidity;BMP_temperature;BMP_pressure;BME280_temperature;BME280_humidity;BME280_pressure;Samples;Min_cycle;Max_cycle;Signal;HPM_P1;HPM_P2
2022/06/04 00:00:42;;;;;;;;;;;;;;;-140.72;100.00;52340.13;4964346;29;19954;-67
2022/06/04 00:03:07;;;;;;;;;;;;;;;-140.72;100.00;52330.00;4964436;28;19944;-66
2022/06/04 00:05:34;;;;;;;;;;;;;;;-140.72;100.00;52340.13;4964442;28;19922;-66
2022/06/04 00:08:00;;;;;;;;;;;;;;;-140.72;100.00;52352.31;4962814;28;19923;-68
2022/06/04 00:15:58;;;;;;;;;;;;;;;-140.72;100.00;52334.03;4963827;28;19928;-66
2022/06/04 00:18:24;;;;;;;;;;;;;;;-140.72;100.00;52344.19;4963220;28;19977;-68
2022/06/04 00:20:50;;;;;;;;;;;;;;;-140.72;100.00;52382.75;4966576;29;19946;-68
2022/06/04 00:23:16;;;;;;;;;;;;;;;-140.72;100.00;52342.16;4964096;29;20362;-67
2022/06/04 00:25:42;;;;;;;;;;;;;;;-140.72;100.00;52321.88;4965362;29;20046;-66
2022/06/04 00:28:09;;;;;;;;;;;;;;;-140.72;100.00;52362.44;4940110;29;19926;-66
2022/06/04 00:30:34;;;;;;;;;;;;;;;-140.72;100.00;52340.13;4964196;29;19922;-67
2022/06/04 00:33:00;;;;;;;;;;;;;;;-140.72;100.00;52356.38;4964539;28;19957;-67
2022/06/04 00:35:26;;;;;;;;;;;;;;;-140.72;100.00;52348.25;4963087;28;19919;-67
2022/06/04 00:37:51;;;;;;;;;;;;;;;-140.72;100.00;52334.03;4965876;28;19929;-67
2022/06/04 00:40:35;;;;;;;;;;;;;;;-140.72;100.00;52356.38;4967002;29;19926;-66
2022/06/04 00:43:00;;;;;;;;;;;;;;;-140.72;100.00;52350.28;4964111;28;19918;-67
2022/06/04 00:45:34;;;;;;;;;;;;;;;-140.72;100.00;52340.13;4959989;28;19945;-66
2022/06/04 00:48:00;;;;;;;;;;;;;;;-140.72;100.00;52374.63;4966691;28;19941;-66
2022/06/04 00:50:27;;;;;;;;;;;;;;;-140.72;100.00;52346.22;4966871;29;19918;-67
2022/06/04 00:52:55;;;;;;;;;;;;;;;-140.72;100.00;52360.44;4963642;28;19919;-67
2022/06/04 00:55:21;;;;;;;;;;;;;;;-140.72;100.00;52360.44;4966659;28;19942;-66
2022/06/04 00:57:52;;;;;;;;;;;;;;;-140.72;100.00;52366.50;4965820;28;20005;-67
2022/06/04 01:00:27;;;;;;;;;;;;;;;-140.72;100.00;52364.47;4964780;28;20306;-66
2022/06/04 01:03:01;;;;;;;;;;;;;;;-140.72;100.00;52370.56;4962177;29;19918;-67
2022/06/04 01:05:45;;;;;;;;;;;;;;;-140.72;100.00;52392.88;4962775;28;19988;-66
2022/06/04 01:08:25;;;;;;;;;;;;;;;-140.72;100.00;52362.44;4965044;28;19923;-66
2022/06/04 01:11:09;;;;;;;;;;;;;;;-140.72;100.00;52370.56;4964892;29;19922;-68
2022/06/04 01:13:40;;;;;;;;;;;;;;;-140.72;100.00;52370.56;4962678;29;19918;-66
2022/06/04 01:16:17;;;;;;;;;;;;;;;-140.72;100.00;52427.38;4966042;28;19918;-65
2022/06/04 01:19:14;;;;;;;;;;;;;;;-140.72;100.00;52354.34;4948942;29;20009;-66
2022/06/04 01:21:53;;;;;;;;;;;;;;;-140.72;100.00;52348.25;4930377;29;19954;-66
2022/06/04 01:24:36;;;;;;;;;;;;;;;-140.72;100.00;52327.97;4965339;29;19985;-66
2022/06/04 01:27:09;;;;;;;;;;;;;;;-140.72;100.00;52356.38;4966630;29;19926;-66
2022/06/04 01:29:36;;;;;;;;;;;;;;;-140.72;100.00;52390.84;4965036;29;19918;-67
2022/06/04 01:32:06;;;;;;;;;;;;;;;-140.72;100.00;52360.44;4954357;29;19918;-67
2022/06/04 01:34:37;;;;;;;;;;;;;;;-140.72;100.00;52362.44;4965167;28;19918;-68
2022/06/04 01:37:06;;;;;;;;;;;;;;;-140.72;100.00;52372.59;4948552;29;19918;-67
2022/06/04 01:41:03;;;;;;;;;;;;;;;-140.72;100.00;52315.78;4962860;29;19922;-67
2022/06/04 01:42:22;;;;;;;;;;;;;;;-140.72;100.00;52366.50;4964489;29;19923;-67
2022/06/04 01:44:48;;;;;;;;;;;;;;;-140.72;100.00;52411.16;4965455;28;19926;-67
2022/06/04 01:47:14;;;;;;;;;;;;;;;-140.72;100.00;52396.94;4963168;29;20378;-67
2022/06/04 01:49:45;;;;;;;;;;;;;;;-140.72;100.00;52358.41;4967041;28;19926;-67
2022/06/04 01:52:15;;;;;;;;;;;;;;;-140.72;100.00;52378.69;4968016;28;19922;-67
2022/06/04 01:54:46;;;;;;;;;;;;;;;-140.72;100.00;52354.34;4969673;29;19922;-67
2022/06/04 01:57:16;;;;;;;;;;;;;;;-140.72;100.00;52356.38;4968736;28;20361;-67
2022/06/04 01:59:47;;;;;;;;;;;;;;;-140.72;100.00;52362.44;4951434;29;19933;-67
2022/06/04 02:02:15;;;;;;;;;;;;;;;-140.72;100.00;52396.94;4969324;29;20302;-67
2022/06/04 02:04:44;;;;;;;;;;;;;;;-140.72;100.00;52362.44;4950955;29;19991;-67
2022/06/04 02:07:31;;;;;;;;;;;;;;;-140.72;100.00;52352.31;4967846;29;19997;-66
2022/06/04 02:10:13;;;;;;;;;;;;;;;-140.72;100.00;52394.91;4967153;29;20400;-66
2022/06/04 02:12:39;;;;;;;;;;;;;;;-140.72;100.00;52346.22;4967525;28;20801;-67
2022/06/04 02:15:10;;;;;;;;;;;;;;;-140.72;100.00;52374.63;4950620;29;20382;-66
2022/06/04 02:17:37;;;;;;;;;;;;;;;-140.72;100.00;52354.34;4967688;28;19918;-67
2022/06/04 02:20:03;;;;;;;;;;;;;;;-140.72;100.00;52401.00;4969105;28;19919;-67
2022/06/04 02:22:31;;;;;;;;;;;;;;;-140.72;100.00;52384.78;4971052;28;19950;-67
2022/06/04 02:24:59;;;;;;;;;;;;;;;-140.72;100.00;52368.53;4967848;28;19934;-66
2022/06/04 02:27:24;;;;;;;;;;;;;;;-140.72;100.00;52411.16;4967799;29;19918;-66
2022/06/04 02:29:49;;;;;;;;;;;;;;;-140.72;100.00;52388.84;4967862;29;19918;-68
2022/06/04 02:32:20;;;;;;;;;;;;;;;-140.72;100.00;52372.59;4968686;29;19918;-66
2022/06/04 02:43:00;;;;;;;;;;;;;;;-140.72;100.00;52362.44;5192321;23;19926;-65
2022/06/04 02:45:48;;;;;;;;;;;;;;;-140.72;100.00;52386.81;4973762;28;19965;-66
2022/06/04 02:48:30;;;;;;;;;;;;;;;-140.72;100.00;52413.19;4979199;28;19926;-67
2022/06/04 02:51:02;;;;;;;;;;;;;;;-140.72;100.00;52396.94;4958353;28;19918;-66
2022/06/04 02:53:30;;;;;;;;;;;;;;;-140.72;100.00;52394.91;4980748;28;19942;-66
2022/06/04 02:56:02;;;;;;;;;;;;;;;-140.72;100.00;52401.00;4964546;28;19972;-66
2022/06/04 02:58:28;;;;;;;;;;;;;;;-140.72;100.00;52388.84;4980052;28;19922;-66
2022/06/04 03:00:54;;;;;;;;;;;;;;;-140.72;100.00;52390.84;4979915;28;19918;-67
2022/06/04 03:03:20;;;;;;;;;;;;;;;-140.72;100.00;52386.81;4963023;28;19919;-67
2022/06/04 03:05:50;;;;;;;;;;;;;;;-140.72;100.00;52425.34;4962653;28;19929;-66
2022/06/04 03:08:15;;;;;;;;;;;;;;;-140.72;100.00;52344.19;4981634;28;20009;-66
2022/06/04 03:10:40;;;;;;;;;;;;;;;-140.72;100.00;52392.88;4962984;28;20526;-66
2022/06/04 03:13:06;;;;;;;;;;;;;;;-140.72;100.00;52407.09;4977865;28;19926;-66
2022/06/04 03:15:31;;;;;;;;;;;;;;;-140.72;100.00;52425.34;4962195;28;19918;-67
2022/06/04 03:17:56;;;;;;;;;;;;;;;-140.72;100.00;52390.84;4958584;28;19925;-67
2022/06/04 03:20:23;;;;;;;;;;;;;;;-140.72;100.00;52340.13;4979095;28;20292;-67
2022/06/04 03:22:49;;;;;;;;;;;;;;;-140.72;100.00;52398.97;4962974;28;19957;-66
2022/06/04 03:25:14;;;;;;;;;;;;;;;-140.72;100.00;52364.47;4978089;28;19933;-66
2022/06/04 03:27:39;;;;;;;;;;;;;;;-140.72;100.00;52364.47;4981765;28;19953;-67
2022/06/04 03:30:06;;;;;;;;;;;;;;;-140.72;100.00;52390.84;4979639;28;20266;-67
2022/06/04 03:32:31;;;;;;;;;;;;;;;-140.72;100.00;52376.66;4962502;28;20281;-66
2022/06/04 03:34:56;;;;;;;;;;;;;;;-140.72;100.00;52366.50;4977209;28;19918;-66
2022/06/04 03:37:21;;;;;;;;;;;;;;;-140.72;100.00;52386.81;4961416;28;19918;-67
2022/06/04 03:39:47;;;;;;;;;;;;;;;-140.72;100.00;52386.81;4980217;28;19932;-66
2022/06/04 03:42:12;;;;;;;;;;;;;;;-140.72;100.00;52386.81;4961960;28;19965;-67
2022/06/04 03:44:40;;;;;;;;;;;;;;;-140.72;100.00;52366.50;4980875;28;19955;-65
2022/06/04 03:47:06;;;;;;;;;;;;;;;-140.72;100.00;52362.44;4980337;28;19961;-66
2022/06/04 03:49:32;;;;;;;;;;;;;;;-140.72;100.00;52374.63;4975064;28;19919;-66
2022/06/04 03:51:58;;;;;;;;;;;;;;;-140.72;100.00;52384.78;4978365;28;19933;-65
2022/06/04 03:59:52;;;;;;;;;;;;;;;-140.72;100.00;52382.75;4973881;28;19984;-67
2022/06/04 04:02:17;;;;;;;;;;;;;;;-140.72;100.00;52378.69;4974602;28;20361;-66
2022/06/04 04:04:43;;;;;;;;;;;;;;;-140.72;100.00;52370.56;4959132;28;19927;-66
2022/06/04 04:07:08;;;;;;;;;;;;;;;-140.72;100.00;52384.78;4971694;28;19933;-67
2022/06/04 04:09:33;;;;;;;;;;;;;;;-140.72;100.00;52392.88;4957685;28;19918;-66
2022/06/04 04:11:58;;;;;;;;;;;;;;;-140.72;100.00;52376.66;4978350;28;19990;-67
2022/06/04 04:14:23;;;;;;;;;;;;;;;-140.72;100.00;52403.03;4975682;28;19962;-66
2022/06/04 04:16:49;;;;;;;;;;;;;;;-140.72;100.00;52392.88;4976191;28;19929;-69
2022/06/04 04:19:14;;;;;;;;;;;;;;;-140.72;100.00;52380.72;4959842;28;19922;-69
2022/06/04 04:21:40;;;;;;;;;;;;;;;-140.72;100.00;52384.78;4960654;28;19992;-69
2022/06/04 04:24:07;;;;;;;;;;;;;;;-140.72;100.00;52409.13;4958320;28;19926;-67
2022/06/04 04:26:32;;;;;;;;;;;;;;;-140.72;100.00;52378.69;4975397;28;20370;-67
2022/06/04 04:28:57;;;;;;;;;;;;;;;-140.72;100.00;52419.28;4977339;28;19919;-66
2022/06/04 04:31:23;;;;;;;;;;;;;;;-140.72;100.00;52370.56;4963350;28;19919;-69
2022/06/04 04:33:48;;;;;;;;;;;;;;;-140.72;100.00;52390.84;4960450;28;19925;-66
2022/06/04 04:36:13;;;;;;;;;;;;;;;-140.72;100.00;52405.06;4978941;28;19930;-66
2022/06/04 04:38:39;;;;;;;;;;;;;;;-140.72;100.00;52415.22;4959178;28;19929;-66
2022/06/04 04:41:11;;;;;;;;;;;;;;;-140.72;100.00;52390.84;4980147;28;19929;-67
2022/06/04 04:43:36;;;;;;;;;;;;;;;-140.72;100.00;52390.84;4961380;28;19917;-68
2022/06/04 04:46:03;;;;;;;;;;;;;;;-140.72;100.00;52384.78;4978529;28;19930;-66
2022/06/04 04:48:28;;;;;;;;;;;;;;;-140.72;100.00;52354.34;4973040;28;19922;-66
2022/06/04 04:50:53;;;;;;;;;;;;;;;-140.72;100.00;52407.09;4982396;28;20001;-68
2022/06/04 04:53:18;;;;;;;;;;;;;;;-140.72;100.00;52382.75;4980285;28;20017;-67
2022/06/04 04:55:47;;;;;;;;;;;;;;;-140.72;100.00;52366.50;4982613;28;19977;-69
2022/06/04 04:58:12;;;;;;;;;;;;;;;-140.72;100.00;52392.88;4986175;28;19926;-67
2022/06/04 05:00:37;;;;;;;;;;;;;;;-140.72;100.00;52413.19;4984524;28;20337;-73
2022/06/04 05:03:03;;;;;;;;;;;;;;;-140.72;100.00;52394.91;4968402;28;19922;-70
2022/06/04 05:05:28;;;;;;;;;;;;;;;-140.72;100.00;52382.75;4976912;28;19918;-67
2022/06/04 05:07:54;;;;;;;;;;;;;;;-140.72;100.00;52370.56;4981603;28;20301;-70
2022/06/04 05:10:20;;;;;;;;;;;;;;;-140.72;100.00;52350.28;4984644;28;19918;-71
2022/06/04 05:12:45;;;;;;;;;;;;;;;-140.72;100.00;52380.72;4987117;28;19964;-70
2022/06/04 05:15:10;;;;;;;;;;;;;;;-140.72;100.00;52362.44;4978438;28;20455;-71
2022/06/04 05:17:36;;;;;;;;;;;;;;;-140.72;100.00;52394.91;4985473;28;19925;-71
2022/06/04 05:20:01;;;;;;;;;;;;;;;-140.72;100.00;52374.63;4966263;28;20020;-70
2022/06/04 05:22:27;;;;;;;;;;;;;;;-140.72;100.00;52362.44;4965839;28;19918;-72
2022/06/04 05:24:52;;;;;;;;;;;;;;;-140.72;100.00;52364.47;4983703;28;19990;-71
2022/06/04 05:27:17;;;;;;;;;;;;;;;-140.72;100.00;52358.41;4977828;28;19922;-71
2022/06/04 05:29:42;;;;;;;;;;;;;;;-140.72;100.00;52384.78;4961662;28;19922;-71
2022/06/04 05:32:09;;;;;;;;;;;;;;;-140.72;100.00;52401.00;4975509;28;19986;-70
2022/06/04 05:34:35;;;;;;;;;;;;;;;-140.72;100.00;52366.50;4964489;28;19926;-71
2022/06/04 05:37:02;;;;;;;;;;;;;;;-140.72;100.00;52370.56;4980588;28;20293;-72
2022/06/04 05:39:31;;;;;;;;;;;;;;;-140.72;100.00;52378.69;4974659;28;19934;-70
2022/06/04 05:41:57;;;;;;;;;;;;;;;-140.72;100.00;52372.59;4968629;28;19937;-71
2022/06/04 05:44:22;;;;;;;;;;;;;;;-140.72;100.00;52382.75;4983955;28;20382;-70
2022/06/04 05:46:47;;;;;;;;;;;;;;;-140.72;100.00;52364.47;4984763;28;19930;-71
2022/06/04 05:49:13;;;;;;;;;;;;;;;-140.72;100.00;52338.09;4970529;28;19926;-71
2022/06/04 05:51:39;;;;;;;;;;;;;;;-140.72;100.00;52350.28;4970942;28;19925;-69
2022/06/04 05:54:05;;;;;;;;;;;;;;;-140.72;100.00;52309.69;4967931;28;19957;-72
2022/06/04 05:56:31;;;;;;;;;;;;;;;-140.72;100.00;52358.41;4983335;28;19922;-70
2022/06/04 05:58:57;;;;;;;;;;;;;;;-140.72;100.00;52323.91;4978189;28;19933;-69
2022/06/04 06:01:23;;;;;;;;;;;;;;;-140.72;100.00;52346.22;4982548;28;19933;-70
2022/06/04 06:03:49;;;;;;;;;;;;;;;-140.72;100.00;52346.22;4971144;28;19922;-68
2022/06/04 06:06:15;;;;;;;;;;;;;;;-140.72;100.00;52285.34;4983507;28;19910;-68
2022/06/04 06:08:40;;;;;;;;;;;;;;;-140.72;100.00;52368.53;4975551;28;19926;-70
2022/06/04 06:11:10;;;;;;;;;;;;;;;-140.72;100.00;52323.91;4974950;28;20394;-68
2022/06/04 06:13:36;;;;;;;;;;;;;;;-140.72;100.00;52305.63;4964674;28;19936;-66
2022/06/04 06:16:12;;;;;;;;;;;;;;;-140.72;100.00;52336.06;4966641;28;20012;-68
2022/06/04 06:18:37;;;;;;;;;;;;;;;-140.72;100.00;52366.50;4982417;28;20121;-73
2022/06/04 06:21:07;;;;;;;;;;;;;;;-140.72;100.00;52350.28;4984516;28;19922;-70
2022/06/04 06:23:33;;;;;;;;;;;;;;;-140.72;100.00;52380.72;4980018;28;19923;-68
2022/06/04 06:26:04;;;;;;;;;;;;;;;-140.72;100.00;52358.41;4977890;28;19949;-69
2022/06/04 06:28:29;;;;;;;;;;;;;;;-140.72;100.00;52323.91;4978719;28;20014;-68
2022/06/04 06:30:54;;;;;;;;;;;;;;;-140.72;100.00;52346.22;4977578;28;20010;-72
2022/06/04 06:33:20;;;;;;;;;;;;;;;-140.72;100.00;52309.69;4980216;28;19929;-69
2022/06/04 06:35:54;;;;;;;;;;;;;;;-140.72;100.00;52356.38;4968221;28;19930;-74
2022/06/04 06:38:19;;;;;;;;;;;;;;;-140.72;100.00;52356.38;4974466;28;19922;-67
2022/06/04 06:40:44;;;;;;;;;;;;;;;-140.72;100.00;52332.03;4987700;28;20045;-67
2022/06/04 06:43:09;;;;;;;;;;;;;;;-140.72;100.00;52291.44;4970487;28;19993;-66
2022/06/04 06:45:35;;;;;;;;;;;;;;;-140.72;100.00;52358.41;4987928;28;19942;-66
2022/06/04 06:48:00;;;;;;;;;;;;;;;-140.72;100.00;52342.16;4990556;28;19918;-66
2022/06/04 06:50:25;;;;;;;;;;;;;;;-140.72;100.00;52338.09;4985163;28;19937;-68
2022/06/04 06:52:50;;;;;;;;;;;;;;;-140.72;100.00;52338.09;4983381;28;19930;-68
2022/06/04 06:55:16;;;;;;;;;;;;;;;-140.72;100.00;52309.69;4994129;28;19922;-65
2022/06/04 06:57:41;;;;;;;;;;;;;;;-140.72;100.00;52346.22;4978810;28;19985;-67
2022/06/04 07:00:06;;;;;;;;;;;;;;;-140.72;100.00;52325.94;4977132;28;20286;-73
2022/06/04 07:02:32;;;;;;;;;;;;;;;-140.72;100.00;52309.69;4972062;28;19926;-73
2022/06/04 07:04:57;;;;;;;;;;;;;;;-140.72;100.00;52309.69;4965128;28;19950;-72
2022/06/04 07:07:22;;;;;;;;;;;;;;;-140.72;100.00;52342.16;4980770;28;19930;-76
2022/06/04 07:09:47;;;;;;;;;;;;;;;-140.72;100.00;52325.94;4966472;28;19990;-75
2022/06/04 07:12:12;;;;;;;;;;;;;;;-140.72;100.00;52325.94;4965005;28;19926;-74
2022/06/04 07:14:38;;;;;;;;;;;;;;;-140.72;100.00;52325.94;4970862;28;19934;-75
2022/06/04 07:17:05;;;;;;;;;;;;;;;-140.72;100.00;52299.56;4965655;28;19993;-74
2022/06/04 07:19:30;;;;;;;;;;;;;;;-140.72;100.00;52334.03;4964219;28;19918;-73
2022/06/04 07:21:56;;;;;;;;;;;;;;;-140.72;100.00;52291.44;4965274;28;19918;-76
2022/06/04 07:24:21;;;;;;;;;;;;;;;-140.72;100.00;52330.00;4965953;28;19945;-75
2022/06/04 07:26:47;;;;;;;;;;;;;;;-140.72;100.00;52297.53;4951471;28;19922;-72
2022/06/04 07:29:12;;;;;;;;;;;;;;;-140.72;100.00;52303.59;4957093;28;19973;-73
2022/06/04 07:31:38;;;;;;;;;;;;;;;-140.72;100.00;52334.03;4969389;28;19929;-66
2022/06/04 07:34:04;;;;;;;;;;;;;;;-140.72;100.00;52299.56;4969236;28;19922;-66
2022/06/04 07:36:32;;;;;;;;;;;;;;;-140.72;100.00;52338.09;4969200;28;20072;-67
2022/06/04 07:38:59;;;;;;;;;;;;;;;-140.72;100.00;52287.38;4965683;28;19944;-68
2022/06/04 07:41:29;;;;;;;;;;;;;;;-140.72;100.00;52327.97;4970768;28;19922;-69
2022/06/04 07:43:54;;;;;;;;;;;;;;;-140.72;100.00;52299.56;4959414;28;19934;-67
2022/06/04 07:46:20;;;;;;;;;;;;;;;-140.72;100.00;52323.91;4977854;28;19929;-69
2022/06/04 07:48:46;;;;;;;;;;;;;;;-140.72;100.00;52297.53;4966812;28;20033;-69
2022/06/04 07:51:12;;;;;;;;;;;;;;;-140.72;100.00;52283.31;4971007;28;19922;-71
2022/06/04 07:53:37;;;;;;;;;;;;;;;-140.72;100.00;52248.81;4966080;28;20402;-71
2022/06/04 07:56:14;;;;;;;;;;;;;;;-140.72;100.00;52238.69;4977092;28;19925;-71
2022/06/04 07:58:39;;;;;;;;;;;;;;;-140.72;100.00;52240.72;4982844;28;19929;-72
2022/06/04 08:01:05;;;;;;;;;;;;;;;-140.72;100.00;52250.84;4983786;28;19997;-68
2022/06/04 08:03:35;;;;;;;;;;;;;;;-140.72;100.00;52291.44;4981395;28;19930;-70
2022/06/04 08:06:02;;;;;;;;;;;;;;;-140.72;100.00;52250.84;4994055;28;19977;-70
2022/06/04 08:08:28;;;;;;;;;;;;;;;-140.72;100.00;52275.19;4999075;28;19921;-69
2022/06/04 08:10:53;;;;;;;;;;;;;;;-140.72;100.00;52256.94;4975701;28;19926;-68
2022/06/04 08:15:49;;;;;;;;;;;;;;;-140.72;100.00;52261.00;4985575;28;19930;-74
2022/06/04 08:18:15;;;;;;;;;;;;;;;-140.72;100.00;52273.19;4958762;28;19926;-75
2022/06/04 08:20:44;;;;;;;;;;;;;;;-140.72;100.00;52279.25;4957441;28;19918;-75
2022/06/04 08:23:10;;;;;;;;;;;;;;;-140.72;100.00;52283.31;4959442;28;19951;-76
2022/06/04 08:25:42;;;;;;;;;;;;;;;-140.72;100.00;52275.19;4962675;28;20269;-75
2022/06/04 08:28:08;;;;;;;;;;;;;;;-140.72;100.00;52293.47;4956642;28;19937;-77
2022/06/04 08:30:33;;;;;;;;;;;;;;;-140.72;100.00;52277.22;4967456;28;19922;-74
2022/06/04 08:32:58;;;;;;;;;;;;;;;-140.72;100.00;52222.44;4947138;28;19922;-76
2022/06/04 08:35:24;;;;;;;;;;;;;;;-140.72;100.00;52263.03;4959631;28;19918;-74
2022/06/04 08:37:50;;;;;;;;;;;;;;;-140.72;100.00;52285.34;4948919;28;19932;-73
2022/06/04 08:40:24;;;;;;;;;;;;;;;-140.72;100.00;52232.59;4962991;28;19937;-70
2022/06/04 08:43:11;;;;;;;;;;;;;;;-140.72;100.00;52222.44;4958863;28;20433;-74
2022/06/04 08:45:37;;;;;;;;;;;;;;;-140.72;100.00;52220.41;4959906;28;19974;-77
2022/06/04 08:48:03;;;;;;;;;;;;;;;-140.72;100.00;52258.97;4958220;28;20424;-74
2022/06/04 08:50:33;;;;;;;;;;;;;;;-140.72;100.00;52263.03;4957566;28;19962;-74
2022/06/04 08:53:00;;;;;;;;;;;;;;;-140.72;100.00;52232.59;4955058;28;19929;-75
2022/06/04 08:58:28;;;;;;;;;;;;;;;-140.72;100.00;52224.47;4969475;28;19929;-79
2022/06/04 09:01:02;;;;;;;;;;;;;;;-140.72;100.00;52242.75;4971179;28;19958;-76
2022/06/04 09:03:47;;;;;;;;;;;;;;;-140.72;100.00;52236.66;4973918;28;20054;-79
2022/06/04 09:06:33;;;;;;;;;;;;;;;-140.72;100.00;52248.81;4947580;28;19977;-78
2022/06/04 09:08:58;;;;;;;;;;;;;;;-140.72;100.00;52224.47;4961008;28;19929;-78
2022/06/04 09:11:28;;;;;;;;;;;;;;;-140.72;100.00;52212.31;4960830;28;19918;-80
2022/06/04 09:14:16;;;;;;;;;;;;;;;-140.72;100.00;52218.38;4981410;28;20408;-76
2022/06/04 09:16:46;;;;;;;;;;;;;;;-140.72;100.00;52218.38;4958806;28;19922;-76
2022/06/04 09:19:20;;;;;;;;;;;;;;;-140.72;100.00;52210.28;4957817;28;19925;-79
2022/06/04 09:21:47;;;;;;;;;;;;;;;-140.72;100.00;52192.00;4951779;28;19923;-74
2022/06/04 09:24:12;;;;;;;;;;;;;;;-140.72;100.00;52196.06;4969975;28;20393;-75
2022/06/04 09:26:43;;;;;;;;;;;;;;;-140.72;100.00;52214.34;4956459;28;19926;-75
2022/06/04 09:29:11;;;;;;;;;;;;;;;-140.72;100.00;52179.84;4970325;28;19922;-75
2022/06/04 09:31:47;;;;;;;;;;;;;;;-140.72;100.00;52224.47;4972967;28;19918;-76
2022/06/04 09:34:24;;;;;;;;;;;;;;;-140.72;100.00;52157.53;4964579;28;19969;-73
2022/06/04 09:36:49;;;;;;;;;;;;;;;-140.72;100.00;52218.38;4960765;28;20039;-75
2022/06/04 09:39:26;;;;;;;;;;;;;;;-140.72;100.00;52210.28;4971149;28;20062;-73
2022/06/04 09:41:59;;;;;;;;;;;;;;;-140.72;100.00;52189.97;4960318;28;19922;-77
2022/06/04 09:44:26;;;;;;;;;;;;;;;-140.72;100.00;52187.97;4971665;28;19922;-77
2022/06/04 09:46:57;;;;;;;;;;;;;;;-140.72;100.00;52212.31;4970368;28;19945;-78
2022/06/04 09:49:29;;;;;;;;;;;;;;;-140.72;100.00;52212.31;4989029;28;19918;-75
2022/06/04 09:51:54;;;;;;;;;;;;;;;-140.72;100.00;52234.63;4981516;28;19981;-77
2022/06/04 09:54:22;;;;;;;;;;;;;;;-140.72;100.00;52194.03;4970315;28;20273;-76
2022/06/04 09:56:50;;;;;;;;;;;;;;;-140.72;100.00;52240.72;4969398;28;19960;-74
2022/06/04 09:59:29;;;;;;;;;;;;;;;-140.72;100.00;52220.41;4970189;28;19923;-74
2022/06/04 10:01:56;;;;;;;;;;;;;;;-140.72;100.00;52230.56;4978832;28;19972;-73
2022/06/04 10:04:23;;;;;;;;;;;;;;;-140.72;100.00;52256.94;4965157;28;19918;-75
2022/06/04 10:06:49;;;;;;;;;;;;;;;-140.72;100.00;52224.47;4965392;28;19918;-74
2022/06/04 10:12:03;;;;;;;;;;;;;;;-140.72;100.00;52224.47;4972441;28;19945;-75
2022/06/04 10:14:28;;;;;;;;;;;;;;;-140.72;100.00;52224.47;4968691;28;19972;-76
2022/06/04 10:16:54;;;;;;;;;;;;;;;-140.72;100.00;52196.06;4970648;28;20016;-71
2022/06/04 10:19:20;;;;;;;;;;;;;;;-140.72;100.00;52248.81;4995691;28;19918;-68
2022/06/04 10:21:48;;;;;;;;;;;;;;;-140.72;100.00;52238.69;4997514;28;20370;-67
2022/06/04 10:24:24;;;;;;;;;;;;;;;-140.72;100.00;52216.34;4994300;28;20004;-70
2022/06/04 10:27:22;;;;;;;;;;;;;;;-140.72;100.00;52214.34;4993419;28;19918;-69
2022/06/04 10:30:06;;;;;;;;;;;;;;;-140.72;100.00;52265.06;4993158;28;19918;-69
2022/06/04 10:32:42;;;;;;;;;;;;;;;-140.72;100.00;52202.16;4988740;28;19910;-72
2022/06/04 10:35:14;;;;;;;;;;;;;;;-140.72;100.00;52234.63;4985496;28;19930;-68
2022/06/04 10:37:48;;;;;;;;;;;;;;;-140.72;100.00;52220.41;4986633;28;19922;-75
2022/06/04 10:40:16;;;;;;;;;;;;;;;-140.72;100.00;52228.53;4991814;28;19957;-70
2022/06/04 10:42:49;;;;;;;;;;;;;;;-140.72;100.00;52261.00;4986690;28;19926;-70
2022/06/04 10:45:16;;;;;;;;;;;;;;;-140.72;100.00;52240.72;4975564;28;19922;-70
2022/06/04 10:47:46;;;;;;;;;;;;;;;-140.72;100.00;52224.47;4986120;28;20342;-69
2022/06/04 10:50:30;;;;;;;;;;;;;;;-140.72;100.00;52297.53;4968678;28;19923;-68
2022/06/04 10:53:21;;;;;;;;;;;;;;;-140.72;100.00;52202.16;4981154;28;19929;-68
2022/06/04 10:55:50;;;;;;;;;;;;;;;-140.72;100.00;52236.66;4979925;28;19996;-68
2022/06/04 10:58:18;;;;;;;;;;;;;;;-140.72;100.00;52216.34;4975726;28;19918;-70
2022/06/04 11:00:53;;;;;;;;;;;;;;;-140.72;100.00;52216.34;4967864;28;19922;-70
2022/06/04 11:03:28;;;;;;;;;;;;;;;-140.72;100.00;52220.41;4960663;28;19933;-68
2022/06/04 11:05:57;;;;;;;;;;;;;;;-140.72;100.00;52200.13;4982389;28;19922;-67
2022/06/04 11:08:29;;;;;;;;;;;;;;;-140.72;100.00;52198.09;4962578;28;19933;-68
2022/06/04 11:10:58;;;;;;;;;;;;;;;-140.72;100.00;52210.28;4979013;28;19954;-70
2022/06/04 11:13:27;;;;;;;;;;;;;;;-140.72;100.00;52208.25;4973739;28;20301;-68
2022/06/04 11:16:09;;;;;;;;;;;;;;;-140.72;100.00;52187.97;4967482;28;20392;-70
2022/06/04 11:18:52;;;;;;;;;;;;;;;-140.72;100.00;52179.84;4970662;28;19942;-71
2022/06/04 11:21:38;;;;;;;;;;;;;;;-140.72;100.00;52204.19;4957041;28;20009;-69
2022/06/04 11:24:14;;;;;;;;;;;;;;;-140.72;100.00;52220.41;4973491;28;19925;-69
2022/06/04 11:26:45;;;;;;;;;;;;;;;-140.72;100.00;52200.13;4975138;28;19978;-68
2022/06/04 11:29:14;;;;;;;;;;;;;;;-140.72;100.00;52187.97;4976882;28;19922;-75
2022/06/04 11:31:52;;;;;;;;;;;;;;;-140.72;100.00;52196.06;4953934;28;19930;-72
2022/06/04 11:34:25;;;;;;;;;;;;;;;-140.72;100.00;52216.34;4954241;28;19965;-78
2022/06/04 11:37:15;;;;;;;;;;;;;;;-140.72;100.00;52169.69;4956574;28;20013;-73
2022/06/04 11:40:10;;;;;;;;;;;;;;;-140.72;100.00;52159.56;4958957;28;20382;-76
2022/06/04 11:55:57;;;;;;;;;;;;;;;-140.72;100.00;52131.16;6179680;22;1974859;-78
2022/06/04 11:58:23;;;;;;;;;;;;;;;-140.72;100.00;52196.06;6261708;23;19916;-74
2022/06/04 12:00:48;;;;;;;;;;;;;;;-140.72;100.00;52179.84;6261976;23;20042;-74
2022/06/04 12:03:36;;;;;;;;;;;;;;;-140.72;100.00;52194.03;6261311;23;19990;-75
2022/06/04 12:06:21;;;;;;;;;;;;;;;-140.72;100.00;52177.81;6261256;23;19912;-75
2022/06/04 12:08:52;;;;;;;;;;;;;;;-140.72;100.00;52133.16;6260069;23;20283;-76
2022/06/04 12:11:36;;;;;;;;;;;;;;;-140.72;100.00;52092.59;6258175;23;19915;-76
2022/06/04 12:14:01;;;;;;;;;;;;;;;-140.72;100.00;52047.97;6257479;23;19959;-74
2022/06/04 12:16:49;;;;;;;;;;;;;;;-140.72;100.00;52029.69;6256608;23;19911;-70
2022/06/04 12:25:05;;;;;;;;;;;;;;;-140.72;100.00;51983.03;6271220;23;19944;-71
2022/06/04 12:27:30;;;;;;;;;;;;;;;-140.72;100.00;51952.59;6269379;22;19916;-71
2022/06/04 12:29:57;;;;;;;;;;;;;;;-140.72;100.00;51960.72;6271313;22;19919;-69
2022/06/04 12:32:22;;;;;;;;;;;;;;;-140.72;100.00;52011.44;6271571;22;19912;-71
2022/06/04 12:34:49;;;;;;;;;;;;;;;-140.72;100.00;51989.13;6245546;23;19943;-70
2022/06/04 12:37:23;;;;;;;;;;;;;;;-140.72;100.00;52066.22;6237718;23;19912;-68
2022/06/04 12:39:49;;;;;;;;;;;;;;;-140.72;100.00;51972.88;6238628;23;19912;-70
2022/06/04 12:42:20;;;;;;;;;;;;;;;-140.72;100.00;51918.09;6240001;23;19918;-69
2022/06/04 12:45:06;;;;;;;;;;;;;;;-140.72;100.00;51936.38;6237831;23;19912;-73
2022/06/04 12:47:35;;;;;;;;;;;;;;;-140.72;100.00;51972.88;6240027;23;19943;-69
2022/06/04 12:50:06;;;;;;;;;;;;;;;-140.72;100.00;51930.28;6243587;23;20328;-70
2022/06/04 12:52:37;;;;;;;;;;;;;;;-140.72;100.00;51950.56;6244156;23;19939;-67
2022/06/04 12:55:07;;;;;;;;;;;;;;;-140.72;100.00;51859.28;6238616;23;19938;-68
2022/06/04 12:57:40;;;;;;;;;;;;;;;-140.72;100.00;51859.28;6236724;23;19916;-68
2022/06/04 13:00:18;;;;;;;;;;;;;;;-140.72;100.00;51863.31;6235609;23;19912;-71
2022/06/04 13:02:55;;;;;;;;;;;;;;;-140.72;100.00;51822.75;6235322;23;19938;-68
2022/06/04 13:05:22;;;;;;;;;;;;;;;-140.72;100.00;51841.00;6236604;23;19938;-68
2022/06/04 13:07:51;;;;;;;;;;;;;;;-140.72;100.00;51830.88;6236362;23;19911;-69
2022/06/04 13:10:23;;;;;;;;;;;;;;;-140.72;100.00;51834.91;6236064;23;19963;-70
2022/06/04 13:12:59;;;;;;;;;;;;;;;-140.72;100.00;51832.91;6236058;23;19912;-68
2022/06/04 13:15:39;;;;;;;;;;;;;;;-140.72;100.00;51905.94;6235888;23;19952;-69